»·PEaware :: SWA872 KSMF-KBOI

SWA872 :: KSMF-KBOI

FLIGHT INFORMATION

Flight Status: Arrived
Operator:
Southwest Airlines
More flights by this operator :: More flights under this callsign
Pilot: Cody S. (29806)
Aircraft: BOEING 737-700
(B737)
More flights by this aircraft type
Origin: KSMF Sacramento Intl
United States
Destination: KBOI Boise Air Terminal/Gowen
United States
More flights between these airports :: More routes between these airports
Route: SCTWN3 MACUS PRNCS SADYL4
File this flight plan on PilotEdge
Remarks:
Altitude:
(Current/Filed)
35,000ft
Speed:
(Current/Filed)
458kts
Departed: 22-Nov-20 08:01 PM
Arrived: 22-Nov-20 09:02 PM
Distance/Time
Traveled:
380nm/1:00
Distance/Time
To Go:
Arrived

Flight Plot

Page will automatically refresh every two minutes.

Flight plan parsing failed; only flown route is shown


Map Options




Map Legend


Flown Route
Filed Route
Departure Airport
Arrival Airport
Navaid (VOR, NDB)
Fix

Horizontal Profiles

Position Reports

Time Latitude Longitude Heading Altitude Ground
Speed
22-Nov-20 19:44 38.696303 -121.594594 180 32ft 0kts
22-Nov-20 19:45 38.696303 -121.594594 180 32ft 0kts
22-Nov-20 19:46 38.696303 -121.594594 180 32ft 0kts
22-Nov-20 19:47 38.696303 -121.594594 180 32ft 0kts
22-Nov-20 19:48 38.696303 -121.594594 180 32ft 0kts
22-Nov-20 19:49 38.696303 -121.594594 180 32ft 0kts
22-Nov-20 19:50 38.696303 -121.594594 180 32ft 0kts
22-Nov-20 19:51 38.696303 -121.594594 180 32ft 0kts
22-Nov-20 19:52 38.696303 -121.594594 180 32ft 0kts
22-Nov-20 19:53 38.696303 -121.594594 180 32ft 0kts
22-Nov-20 19:54 38.696303 -121.594594 180 32ft 0kts
22-Nov-20 19:55 38.696849 -121.594566 208 32ft 2kts
22-Nov-20 19:56 38.696986 -121.594210 270 32ft 0kts
22-Nov-20 19:57 38.697018 -121.596309 271 30ft 27kts
22-Nov-20 19:58 38.701664 -121.598584 359 30ft 32kts
22-Nov-20 19:59 38.707216 -121.599674 272 31ft 0kts
22-Nov-20 20:00 38.704114 -121.601127 178 30ft 81kts
22-Nov-20 20:01 38.659251 -121.595179 162 2526ft 196kts
22-Nov-20 20:02 38.637514 -121.522797 93 5296ft 270kts
22-Nov-20 20:03 38.631761 -121.422914 86 9156ft 291kts
22-Nov-20 20:04 38.634794 -121.310650 87 11798ft 346kts
22-Nov-20 20:05 38.638084 -121.182447 88 14974ft 371kts
22-Nov-20 20:06 38.641025 -121.048295 89 17940ft 392kts
22-Nov-20 20:07 38.644375 -120.905677 90 19024ft 398kts
22-Nov-20 20:08 38.649970 -120.763221 80 19650ft 405kts
22-Nov-20 20:09 38.698568 -120.631402 49 22255ft 424kts
22-Nov-20 20:10 38.776502 -120.513429 48 23753ft 433kts
22-Nov-20 20:11 38.855312 -120.394577 48 25915ft 452kts
22-Nov-20 20:12 38.938051 -120.269382 49 27893ft 469kts
22-Nov-20 20:13 39.024061 -120.138627 50 29686ft 486kts
22-Nov-20 20:14 39.112225 -120.004031 50 31590ft 494kts
22-Nov-20 20:15 39.200959 -119.867983 50 33503ft 497kts
22-Nov-20 20:16 39.288597 -119.733042 49 35022ft 501kts
22-Nov-20 20:17 39.378835 -119.593499 49 35038ft 502kts
22-Nov-20 20:18 39.468161 -119.454751 49 35041ft 502kts
22-Nov-20 20:19 39.557234 -119.315823 50 35035ft 502kts
22-Nov-20 20:20 39.646398 -119.176176 50 35036ft 503kts
22-Nov-20 20:21 39.734791 -119.037041 50 35038ft 504kts
22-Nov-20 20:22 39.823857 -118.895942 53 35039ft 504kts
22-Nov-20 20:23 39.933534 -118.788480 22 35044ft 499kts
22-Nov-20 20:24 40.063484 -118.733132 11 35043ft 489kts
22-Nov-20 20:25 40.194376 -118.684510 11 35036ft 490kts
22-Nov-20 20:26 40.324265 -118.635956 11 35037ft 490kts
22-Nov-20 20:27 40.455079 -118.586868 11 35039ft 490kts
22-Nov-20 20:28 40.586034 -118.537525 11 35041ft 489kts
22-Nov-20 20:29 40.716766 -118.488067 12 35035ft 489kts
22-Nov-20 20:30 40.847416 -118.438435 12 35025ft 488kts
22-Nov-20 20:31 40.976222 -118.389308 12 35027ft 488kts
22-Nov-20 20:32 41.106121 -118.339573 13 35020ft 486kts
22-Nov-20 20:33 41.236355 -118.289534 13 35013ft 485kts
22-Nov-20 20:34 41.365367 -118.239715 13 35015ft 484kts
22-Nov-20 20:35 41.494515 -118.189637 13 35016ft 484kts
22-Nov-20 20:36 41.622310 -118.139879 13 35018ft 483kts
22-Nov-20 20:37 41.750902 -118.089606 13 35019ft 483kts
22-Nov-20 20:38 41.879733 -118.039027 13 35020ft 483kts
22-Nov-20 20:39 42.008470 -117.988272 13 35020ft 483kts
22-Nov-20 20:40 42.137424 -117.937216 13 35011ft 482kts
22-Nov-20 20:41 42.256910 -117.889724 13 34449ft 491kts
22-Nov-20 20:42 42.388074 -117.829893 25 30466ft 505kts
22-Nov-20 20:43 42.501042 -117.717324 47 26162ft 510kts
22-Nov-20 20:44 42.589691 -117.572547 51 24022ft 502kts
22-Nov-20 20:45 42.678281 -117.425204 50 24018ft 500kts
22-Nov-20 20:46 42.765368 -117.279699 51 24019ft 501kts
22-Nov-20 20:47 42.851436 -117.133488 51 22843ft 486kts
22-Nov-20 20:48 42.933468 -116.993883 51 18785ft 456kts
22-Nov-20 20:49 43.008447 -116.865629 51 14311ft 404kts
22-Nov-20 20:50 43.071469 -116.757823 50 14032ft 351kts
22-Nov-20 20:51 43.131837 -116.655636 50 12737ft 338kts
22-Nov-20 20:52 43.192794 -116.571739 28 11048ft 295kts
22-Nov-20 20:53 43.267691 -116.535383 15 8976ft 280kts
22-Nov-20 20:54 43.340683 -116.506293 16 7087ft 266kts
22-Nov-20 20:55 43.410200 -116.478425 16 6465ft 258kts
22-Nov-20 20:56 43.477854 -116.451265 16 5156ft 254kts
22-Nov-20 20:57 43.542069 -116.413787 27 5016ft 251kts
22-Nov-20 20:58 43.578122 -116.345084 69 4083ft 210kts
22-Nov-20 20:59 43.585527 -116.286211 121 3552ft 142kts
22-Nov-20 21:00 43.568515 -116.238261 115 2839ft 120kts
22-Nov-20 21:01 43.561772 -116.217258 34 2860ft 11kts
22-Nov-20 21:02 43.563827 -116.217008 353 2863ft 23kts
22-Nov-20 21:03 43.567030 -116.220176 31 2857ft 1kts
22-Nov-20 21:04 43.567040 -116.220168 31 2857ft 0kts
22-Nov-20 21:05 43.567040 -116.220168 31 2857ft 0kts
22-Nov-20 21:07 43.567040 -116.220168 31 2857ft 0kts
22-Nov-20 21:08 43.567040 -116.220168 31 2857ft 0kts
22-Nov-20 21:09 43.567040 -116.220168 31 2857ft 0kts

Navigation Log

Ident Type
Flight plan parsing failed, navigation log unavailable